Time;durP1;ratioP1;P1;durP2;ratioP2;P2;SDS_P1;SDS_P2;PMS_P1;PMS_P2;Temp;Humidity;BMP_temperature;BMP_pressure;BME280_temperature;BME280_humidity;BME280_pressure;Samples;Min_cycle;Max_cycle;Signal;HPM_P1;HPM_P2
2023/04/19 00:01:19;;;;;;;0.75;0.75;;;8.10;99.90;;;;;;6169604;23;20318;-85
2023/04/19 00:03:45;;;;;;;1.27;0.45;;;8.10;99.90;;;;;;6219138;23;20051;-86
2023/04/19 00:06:13;;;;;;;0.90;0.73;;;8.00;99.90;;;;;;6194550;23;20016;-87
2023/04/19 00:08:40;;;;;;;0.77;0.60;;;8.00;99.90;;;;;;6145038;23;20099;-89
2023/04/19 00:11:07;;;;;;;0.57;0.52;;;8.00;99.90;;;;;;6169542;23;20019;-86
2023/04/19 00:13:33;;;;;;;0.60;0.57;;;7.90;99.90;;;;;;6194228;23;20095;-86
2023/04/19 00:15:59;;;;;;;0.70;0.70;;;7.90;99.90;;;;;;6193476;23;20601;-86
2023/04/19 00:18:24;;;;;;;0.70;0.63;;;7.90;99.90;;;;;;6218330;23;20013;-86
2023/04/19 00:20:50;;;;;;;0.97;0.77;;;7.90;99.90;;;;;;6193768;23;20329;-86
2023/04/19 00:23:16;;;;;;;0.70;0.40;;;7.90;99.90;;;;;;6193351;23;20012;-86
2023/04/19 00:25:42;;;;;;;0.77;0.70;;;7.80;99.90;;;;;;6193477;23;20024;-86
2023/04/19 00:28:07;;;;;;;1.30;0.77;;;7.90;99.90;;;;;;6193367;23;20020;-86
2023/04/19 00:30:33;;;;;;;0.90;0.60;;;7.80;99.90;;;;;;6193825;23;20017;-86
2023/04/19 00:32:59;;;;;;;1.90;0.97;;;7.80;99.90;;;;;;6192899;23;20012;-86
2023/04/19 00:35:24;;;;;;;1.40;0.90;;;7.80;99.90;;;;;;6193649;23;20081;-87
2023/04/19 00:37:50;;;;;;;1.37;0.87;;;7.80;99.90;;;;;;6193361;23;20024;-86
2023/04/19 00:40:16;;;;;;;2.17;0.60;;;7.80;99.90;;;;;;6144371;23;20048;-86
2023/04/19 00:42:41;;;;;;;0.50;0.50;;;7.80;99.90;;;;;;6193463;23;20055;-91
2023/04/19 00:45:08;;;;;;;1.13;0.70;;;7.80;99.90;;;;;;6168327;23;20020;-86
2023/04/19 00:47:35;;;;;;;0.40;0.40;;;7.70;99.90;;;;;;6169642;23;20345;-86
2023/04/19 00:50:04;;;;;;;2.00;0.77;;;7.70;99.90;;;;;;6192840;23;20020;-90
2023/04/19 00:52:32;;;;;;;3.25;0.85;;;7.70;99.90;;;;;;6194320;23;20330;-85
2023/04/19 00:54:59;;;;;;;0.57;0.57;;;7.70;99.90;;;;;;6218201;23;20012;-86
2023/04/19 00:57:24;;;;;;;0.80;0.73;;;7.70;99.90;;;;;;6218386;23;20341;-86
2023/04/19 00:59:50;;;;;;;1.13;0.50;;;7.60;99.90;;;;;;6168271;23;20023;-86
2023/04/19 01:02:20;;;;;;;1.77;0.90;;;7.60;99.90;;;;;;6218563;23;20020;-85
2023/04/19 01:04:45;;;;;;;0.77;0.55;;;7.60;99.90;;;;;;6193650;23;20340;-92
2023/04/19 01:07:11;;;;;;;2.73;0.77;;;7.50;99.90;;;;;;6168168;23;20023;-86
2023/04/19 01:09:44;;;;;;;0.52;0.52;;;7.50;99.90;;;;;;6196515;23;20020;-85
2023/04/19 01:12:10;;;;;;;1.85;0.55;;;7.50;99.90;;;;;;6196288;23;20020;-87
2023/04/19 01:14:36;;;;;;;0.63;0.47;;;7.50;99.90;;;;;;6171995;23;20022;-85
2023/04/19 01:17:04;;;;;;;0.30;0.30;;;7.50;99.90;;;;;;6221335;23;20031;-86
2023/04/19 01:19:30;;;;;;;0.43;0.35;;;7.40;99.90;;;;;;6172578;23;20050;-86
2023/04/19 01:21:57;;;;;;;1.70;1.17;;;7.40;99.90;;;;;;6221389;23;20055;-85
2023/04/19 01:24:22;;;;;;;1.63;0.75;;;7.40;99.90;;;;;;6197144;23;20095;-86
2023/04/19 01:26:48;;;;;;;1.90;1.33;;;7.30;99.90;;;;;;6171645;23;20058;-92
2023/04/19 01:29:14;;;;;;;1.23;0.67;;;7.30;99.90;;;;;;6221959;23;20019;-86
2023/04/19 01:31:40;;;;;;;1.20;0.80;;;7.30;99.90;;;;;;6222038;23;20012;-85
2023/04/19 01:34:06;;;;;;;0.80;0.60;;;7.20;99.90;;;;;;6196237;23;20243;-85
2023/04/19 01:36:31;;;;;;;0.60;0.60;;;7.20;99.90;;;;;;6172071;23;20463;-85
2023/04/19 01:38:57;;;;;;;1.90;0.73;;;7.20;99.90;;;;;;6171768;23;20023;-86
2023/04/19 01:41:25;;;;;;;0.60;0.60;;;7.10;99.90;;;;;;6171298;23;20027;-86
2023/04/19 01:43:52;;;;;;;1.40;0.57;;;7.10;99.90;;;;;;6197156;23;20023;-86
2023/04/19 01:46:17;;;;;;;0.75;0.63;;;7.10;99.90;;;;;;6221669;23;20027;-85
2023/04/19 01:48:43;;;;;;;0.97;0.97;;;7.00;99.90;;;;;;6196285;23;20016;-85
2023/04/19 01:51:09;;;;;;;1.90;0.50;;;7.00;99.90;;;;;;6195762;23;20016;-87
2023/04/19 01:53:34;;;;;;;2.20;0.57;;;7.00;99.90;;;;;;6171994;23;20016;-86
2023/04/19 01:56:00;;;;;;;1.20;0.60;;;6.90;99.90;;;;;;6221213;23;20099;-86
2023/04/19 01:58:28;;;;;;;0.90;0.90;;;6.90;99.90;;;;;;6221368;23;20095;-86
2023/04/19 02:00:54;;;;;;;1.02;0.95;;;6.90;99.90;;;;;;6196371;23;20344;-86
2023/04/19 02:03:19;;;;;;;1.10;1.00;;;6.90;99.90;;;;;;6221717;23;20020;-87
2023/04/19 02:05:45;;;;;;;1.43;0.63;;;6.90;99.90;;;;;;6196284;23;20020;-86
2023/04/19 02:08:11;;;;;;;1.23;0.80;;;6.80;99.90;;;;;;6221230;23;20023;-85
2023/04/19 02:10:37;;;;;;;1.13;0.90;;;6.80;99.90;;;;;;6171544;23;20051;-86
2023/04/19 02:13:02;;;;;;;2.83;0.93;;;6.80;99.90;;;;;;6171645;23;20289;-86
2023/04/19 02:15:28;;;;;;;0.70;0.53;;;6.80;99.90;;;;;;6196434;23;20020;-90
2023/04/19 02:17:54;;;;;;;1.47;1.00;;;6.80;99.90;;;;;;6196144;23;20039;-92
2023/04/19 02:20:20;;;;;;;1.53;1.00;;;6.70;99.90;;;;;;6219998;23;20348;-86
2023/04/19 02:22:46;;;;;;;0.70;0.47;;;6.70;99.90;;;;;;6169788;23;20380;-86
2023/04/19 02:25:12;;;;;;;0.47;0.47;;;6.70;99.90;;;;;;6194723;23;20027;-86
2023/04/19 02:27:38;;;;;;;1.47;0.57;;;6.60;99.90;;;;;;6219747;23;20020;-86
2023/04/19 02:30:04;;;;;;;2.13;1.43;;;6.60;99.90;;;;;;6194457;23;20027;-86
2023/04/19 02:32:33;;;;;;;2.45;1.60;;;6.60;99.90;;;;;;6195301;23;20344;-87
2023/04/19 02:34:59;;;;;;;0.83;0.60;;;6.60;99.90;;;;;;6169297;23;20094;-86
2023/04/19 02:37:24;;;;;;;2.40;1.17;;;6.50;99.90;;;;;;6246538;23;20016;-85
2023/04/19 02:39:50;;;;;;;1.03;0.73;;;6.60;99.90;;;;;;6194558;23;20080;-86
2023/04/19 02:42:16;;;;;;;1.13;1.03;;;6.50;99.90;;;;;;6145046;23;20009;-86
2023/04/19 02:44:41;;;;;;;0.80;0.77;;;6.50;99.90;;;;;;6219766;23;20082;-85
2023/04/19 02:47:07;;;;;;;1.67;0.80;;;6.40;99.90;;;;;;6169515;23;20066;-86
2023/04/19 02:49:35;;;;;;;1.40;0.77;;;6.40;99.90;;;;;;6189212;23;20019;-85
2023/04/19 02:52:01;;;;;;;1.30;1.20;;;6.40;99.90;;;;;;6165634;23;20020;-85
2023/04/19 02:54:27;;;;;;;0.80;0.63;;;6.30;99.90;;;;;;6214281;23;20027;-88
2023/04/19 02:56:52;;;;;;;2.83;0.87;;;6.30;99.90;;;;;;6189404;23;20028;-85
2023/04/19 02:59:18;;;;;;;0.97;0.53;;;6.30;99.90;;;;;;6214057;23;20630;-85
2023/04/19 03:01:44;;;;;;;0.63;0.63;;;6.30;99.90;;;;;;6189336;23;20039;-85
2023/04/19 03:04:09;;;;;;;0.53;0.30;;;6.20;99.90;;;;;;6189195;23;20056;-86
2023/04/19 03:06:35;;;;;;;3.60;0.90;;;6.30;99.90;;;;;;6213529;23;20101;-85
2023/04/19 03:09:01;;;;;;;3.03;1.57;;;6.20;99.90;;;;;;6188730;23;20013;-89
2023/04/19 03:11:26;;;;;;;3.50;0.60;;;6.20;99.90;;;;;;6189230;23;20103;-85
2023/04/19 03:13:52;;;;;;;1.60;1.47;;;6.10;99.90;;;;;;6213608;23;20016;-85
2023/04/19 03:16:18;;;;;;;1.07;0.67;;;6.10;99.90;;;;;;6163637;23;20070;-85
2023/04/19 03:18:44;;;;;;;1.20;0.73;;;6.10;99.90;;;;;;6188942;23;20047;-85
2023/04/19 03:21:09;;;;;;;1.47;0.87;;;6.00;99.90;;;;;;6164348;23;20028;-85
2023/04/19 03:23:38;;;;;;;0.67;0.67;;;6.00;99.90;;;;;;6214398;23;20020;-85
2023/04/19 03:26:04;;;;;;;0.70;0.40;;;6.00;99.90;;;;;;6164103;23;20318;-86
2023/04/19 03:28:29;;;;;;;1.27;1.17;;;6.00;99.90;;;;;;6189010;23;20052;-87
2023/04/19 03:30:55;;;;;;;0.70;0.57;;;5.90;99.90;;;;;;6213383;23;20021;-87
2023/04/19 03:33:21;;;;;;;3.93;1.00;;;5.90;99.90;;;;;;6188495;23;20681;-85
2023/04/19 03:35:46;;;;;;;0.93;0.70;;;5.90;99.90;;;;;;6189091;23;20013;-86
2023/04/19 03:38:12;;;;;;;0.97;0.60;;;5.80;99.90;;;;;;6213863;23;20016;-85
2023/04/19 03:40:38;;;;;;;1.30;0.70;;;5.80;99.90;;;;;;6188402;23;20066;-86
2023/04/19 03:43:03;;;;;;;1.90;0.90;;;5.80;99.90;;;;;;6164123;23;20020;-91
2023/04/19 03:45:29;;;;;;;1.37;0.33;;;5.70;99.90;;;;;;6214245;23;20023;-85
2023/04/19 03:47:55;;;;;;;1.10;0.60;;;5.70;99.90;;;;;;6189657;23;20364;-85
2023/04/19 03:50:21;;;;;;;2.33;1.53;;;5.70;99.90;;;;;;6188865;23;20457;-85
2023/04/19 03:52:47;;;;;;;1.53;0.97;;;5.60;99.90;;;;;;6189460;23;20024;-85
2023/04/19 03:55:12;;;;;;;1.17;0.70;;;5.60;99.90;;;;;;6213908;23;20016;-85
2023/04/19 03:57:38;;;;;;;1.87;1.13;;;5.60;99.90;;;;;;6213996;23;20035;-86
2023/04/19 04:00:07;;;;;;;3.10;1.13;;;5.60;99.90;;;;;;6215842;23;20024;-87
2023/04/19 04:02:37;;;;;;;0.30;0.30;;;5.50;99.90;;;;;;6190038;23;20016;-86
2023/04/19 04:05:04;;;;;;;0.75;0.75;;;5.50;99.90;;;;;;6188666;23;20506;-85
2023/04/19 04:07:29;;;;;;;1.35;0.57;;;5.50;99.90;;;;;;6189068;23;20479;-85
2023/04/19 04:09:55;;;;;;;0.70;0.70;;;5.40;99.90;;;;;;6164360;23;20016;-85
2023/04/19 04:12:24;;;;;;;0.83;0.73;;;5.40;99.90;;;;;;6188937;23;20103;-86
2023/04/19 04:14:49;;;;;;;1.25;0.60;;;5.40;99.90;;;;;;6189484;23;20017;-86
2023/04/19 04:17:15;;;;;;;1.67;0.63;;;5.30;99.90;;;;;;6188179;23;20102;-86
2023/04/19 04:19:41;;;;;;;1.13;0.70;;;5.30;99.90;;;;;;6188704;23;20063;-86
2023/04/19 04:22:07;;;;;;;0.87;0.60;;;5.30;99.90;;;;;;6188282;23;20520;-86
2023/04/19 04:24:40;;;;;;;0.57;0.57;;;5.20;99.90;;;;;;6213465;23;20044;-85
2023/04/19 04:27:08;;;;;;;0.60;0.60;;;5.20;99.90;;;;;;6188283;23;20437;-85
2023/04/19 04:29:38;;;;;;;0.82;0.73;;;5.20;99.90;;;;;;6188511;23;20016;-86
2023/04/19 04:32:09;;;;;;;0.98;0.63;;;5.20;99.90;;;;;;6213580;23;20325;-86
2023/04/19 04:34:36;;;;;;;0.30;0.30;;;5.10;99.90;;;;;;6188935;23;20020;-85
2023/04/19 04:37:02;;;;;;;;;;;5.10;99.90;;;;;;6164033;23;20017;-85
2023/04/19 04:39:29;;;;;;;0.32;0.32;;;5.10;99.90;;;;;;6212986;23;19916;-86
2023/04/19 04:41:56;;;;;;;1.45;0.88;;;5.10;99.90;;;;;;6188243;23;20062;-85
2023/04/19 04:44:23;;;;;;;0.20;0.20;;;5.10;99.90;;;;;;6188334;23;20016;-85
2023/04/19 04:46:48;;;;;;;0.77;0.75;;;5.10;99.90;;;;;;6213424;23;20090;-85
2023/04/19 04:49:14;;;;;;;0.83;0.63;;;5.10;99.90;;;;;;6187594;23;20507;-87
2023/04/19 04:51:40;;;;;;;0.30;0.30;;;5.10;99.90;;;;;;6188538;23;20017;-85
2023/04/19 04:54:06;;;;;;;3.00;0.60;;;5.10;99.90;;;;;;6188384;23;20051;-85
2023/04/19 04:56:31;;;;;;;1.13;0.40;;;5.10;99.90;;;;;;6163412;23;20016;-86
2023/04/19 04:58:58;;;;;;;0.47;0.47;;;5.00;99.90;;;;;;6163729;23;20019;-85
2023/04/19 05:01:26;;;;;;;1.13;0.65;;;5.00;99.90;;;;;;6162662;23;20021;-85
2023/04/19 05:03:51;;;;;;;1.15;0.43;;;5.00;99.90;;;;;;6187946;23;20246;-86
2023/04/19 05:06:17;;;;;;;0.30;0.30;;;5.00;99.90;;;;;;6188078;23;20048;-86
2023/04/19 05:08:44;;;;;;;0.40;0.37;;;5.00;99.90;;;;;;6213402;23;20013;-85
2023/04/19 05:11:10;;;;;;;0.63;0.52;;;5.10;99.90;;;;;;6213253;23;20456;-86
2023/04/19 05:13:35;;;;;;;0.63;0.53;;;5.10;99.90;;;;;;6163217;23;20013;-86
2023/04/19 05:16:01;;;;;;;0.77;0.67;;;5.10;99.90;;;;;;6188086;23;20021;-88
2023/04/19 05:18:27;;;;;;;0.73;0.53;;;5.10;99.90;;;;;;6187815;23;20433;-85
2023/04/19 05:20:56;;;;;;;1.50;0.83;;;5.10;99.90;;;;;;6188288;23;20048;-85
2023/04/19 05:23:21;;;;;;;0.50;0.20;;;6.10;99.90;;;;;;6188518;23;20052;-86
2023/04/19 05:25:47;;;;;;;2.33;0.67;;;5.20;99.90;;;;;;6213028;23;20108;-86
2023/04/19 05:28:13;;;;;;;0.63;0.63;;;5.30;99.90;;;;;;6188338;23;20016;-86
2023/04/19 05:30:38;;;;;;;0.43;0.37;;;5.50;99.90;;;;;;6188045;23;20020;-86
2023/04/19 05:33:04;;;;;;;1.50;0.70;;;5.70;99.90;;;;;;6212956;23;20452;-86
2023/04/19 05:35:30;;;;;;;1.07;0.67;;;5.90;99.90;;;;;;6212883;23;20108;-85
2023/04/19 05:37:56;;;;;;;1.17;0.50;;;6.20;99.90;;;;;;6188308;23;20024;-86
2023/04/19 05:40:24;;;;;;;0.73;0.30;;;6.40;99.90;;;;;;6162966;23;20023;-86
2023/04/19 05:42:52;;;;;;;0.50;0.50;;;6.60;99.90;;;;;;6187402;23;20634;-89
2023/04/19 05:45:20;;;;;;;0.47;0.30;;;6.90;99.90;;;;;;6213713;23;20024;-87
2023/04/19 05:47:46;;;;;;;0.30;0.30;;;7.00;99.90;;;;;;6187765;23;20349;-89
2023/04/19 05:50:13;;;;;;;1.20;1.10;;;7.20;99.90;;;;;;6214577;23;20060;-95
2023/04/19 05:52:42;;;;;;;1.10;0.47;;;7.40;99.90;;;;;;6212268;23;20169;-86
2023/04/19 05:55:08;;;;;;;0.40;0.38;;;7.60;99.90;;;;;;6188459;23;20079;-91
2023/04/19 05:57:33;;;;;;;0.23;0.23;;;7.80;99.90;;;;;;6164320;23;20013;-88
2023/04/19 05:59:59;;;;;;;0.43;0.43;;;7.90;99.90;;;;;;6214966;23;20017;-88
2023/04/19 06:02:25;;;;;;;0.90;0.65;;;8.10;99.90;;;;;;6164805;23;20027;-87
2023/04/19 06:04:51;;;;;;;0.83;0.70;;;8.20;99.90;;;;;;6165192;23;20017;-87
2023/04/19 06:07:17;;;;;;;0.70;0.50;;;8.40;99.90;;;;;;6189027;23;20036;-88
2023/04/19 06:09:42;;;;;;;0.30;0.30;;;8.60;99.90;;;;;;6189498;23;20457;-87
2023/04/19 06:12:08;;;;;;;0.37;0.37;;;8.70;99.90;;;;;;6215417;23;20092;-86
2023/04/19 06:14:34;;;;;;;0.60;0.50;;;8.90;99.90;;;;;;6190255;23;20472;-86
2023/04/19 06:17:00;;;;;;;0.57;0.57;;;9.00;99.90;;;;;;6190272;23;20013;-87
2023/04/19 06:19:26;;;;;;;0.37;0.37;;;9.20;99.90;;;;;;6189123;23;20024;-89
2023/04/19 06:21:51;;;;;;;0.55;0.52;;;9.30;99.90;;;;;;6190032;23;20331;-87
2023/04/19 06:24:17;;;;;;;0.33;0.33;;;9.20;99.90;;;;;;6215147;23;20036;-86
2023/04/19 06:26:43;;;;;;;1.43;0.40;;;9.40;99.90;;;;;;6189221;23;20020;-88
2023/04/19 06:29:08;;;;;;;0.33;0.33;;;9.50;99.90;;;;;;6215003;23;20508;-86
2023/04/19 06:31:34;;;;;;;0.60;0.30;;;9.60;99.90;;;;;;6214271;23;20472;-86
2023/04/19 06:34:00;;;;;;;1.30;0.67;;;9.70;99.90;;;;;;6164831;23;20017;-87
2023/04/19 06:36:26;;;;;;;1.00;0.50;;;9.80;99.90;;;;;;6189972;23;20083;-91
2023/04/19 06:39:03;;;;;;;0.43;0.43;;;9.90;99.90;;;;;;6190235;23;20024;-87
2023/04/19 06:41:30;;;;;;;0.30;0.30;;;10.00;99.90;;;;;;6189914;23;20107;-88
2023/04/19 06:43:55;;;;;;;1.17;0.47;;;10.20;99.90;;;;;;6214722;23;20013;-87
2023/04/19 06:46:26;;;;;;;0.47;0.47;;;10.40;99.90;;;;;;6190485;23;20496;-86
2023/04/19 06:48:52;;;;;;;0.38;0.25;;;10.40;99.90;;;;;;6190346;23;20457;-87
2023/04/19 06:51:20;;;;;;;0.43;0.30;;;10.60;99.90;;;;;;6189970;23;20020;-87
2023/04/19 06:53:46;;;;;;;0.52;0.52;;;10.70;99.90;;;;;;6189682;23;20449;-87
2023/04/19 06:56:13;;;;;;;1.33;0.35;;;10.80;99.90;;;;;;6189763;23;20024;-87
2023/04/19 06:58:38;;;;;;;;;;;10.90;99.90;;;;;;6165591;23;20381;-87
2023/04/19 07:01:04;;;;;;;0.38;0.38;;;11.00;99.90;;;;;;6190313;23;19916;-86
2023/04/19 07:03:30;;;;;;;1.45;0.20;;;11.20;99.90;;;;;;6215048;23;20139;-87
2023/04/19 07:05:56;;;;;;;0.40;0.40;;;11.50;99.90;;;;;;6165062;23;20023;-87
2023/04/19 07:08:22;;;;;;;0.73;0.73;;;11.40;99.90;;;;;;6190228;23;20248;-86
2023/04/19 07:10:48;;;;;;;0.68;0.47;;;11.50;99.90;;;;;;6214403;23;20076;-88
2023/04/19 07:13:14;;;;;;;0.40;0.30;;;11.60;99.90;;;;;;6165373;23;20012;-86
2023/04/19 07:15:39;;;;;;;0.15;0.15;;;11.80;99.90;;;;;;6189189;23;20255;-87
2023/04/19 07:18:05;;;;;;;0.20;0.20;;;11.80;99.90;;;;;;6190397;23;20020;-85
2023/04/19 07:20:31;;;;;;;0.70;0.68;;;11.90;99.90;;;;;;6189221;23;20013;-85
2023/04/19 07:23:00;;;;;;;0.25;0.25;;;12.20;99.90;;;;;;6216555;23;20021;-86
2023/04/19 07:25:26;;;;;;;1.05;0.40;;;12.20;99.90;;;;;;6140080;23;20425;-86
2023/04/19 07:27:53;;;;;;;0.38;0.38;;;12.20;99.90;;;;;;6189450;23;20094;-86
2023/04/19 07:30:19;;;;;;;0.28;0.28;;;12.30;99.90;;;;;;6189837;23;20024;-86
2023/04/19 07:32:50;;;;;;;0.88;0.30;;;12.40;99.90;;;;;;6190123;23;20020;-86
2023/04/19 07:35:16;;;;;;;0.20;0.20;;;12.60;99.90;;;;;;6189676;23;20020;-86
2023/04/19 07:37:43;;;;;;;;;;;12.80;99.90;;;;;;6191481;23;20025;-85
2023/04/19 07:40:10;;;;;;;0.22;0.22;;;12.90;99.90;;;;;;6195846;23;19916;-85
2023/04/19 07:42:35;;;;;;;1.20;0.40;;;13.10;99.90;;;;;;6195247;23;20060;-85
2023/04/19 07:45:01;;;;;;;0.55;0.30;;;12.90;99.90;;;;;;6195623;23;20079;-84
2023/04/19 07:47:27;;;;;;;0.38;0.20;;;13.00;99.90;;;;;;6221199;23;20016;-85
2023/04/19 07:49:55;;;;;;;0.30;0.30;;;13.20;99.90;;;;;;6214419;23;20043;-85
2023/04/19 07:52:20;;;;;;;0.30;0.30;;;13.50;99.90;;;;;;6216413;23;20025;-93
2023/04/19 07:54:49;;;;;;;0.20;0.20;;;13.70;99.90;;;;;;6215033;23;20103;-89
2023/04/19 07:57:15;;;;;;;0.45;0.38;;;13.80;99.90;;;;;;6165982;23;20021;-91
2023/04/19 07:59:43;;;;;;;1.38;1.27;;;13.80;99.90;;;;;;6164776;23;20023;-91
2023/04/19 08:02:09;;;;;;;0.43;0.30;;;13.70;99.90;;;;;;6189407;23;20457;-90
2023/04/19 08:04:36;;;;;;;0.45;0.20;;;13.80;99.90;;;;;;6189461;23;20060;-90
2023/04/19 08:07:03;;;;;;;0.13;0.10;;;14.00;99.90;;;;;;6164913;23;20428;-90
2023/04/19 08:09:31;;;;;;;0.40;0.40;;;14.10;99.90;;;;;;6191667;23;20032;-89
2023/04/19 08:12:00;;;;;;;0.25;0.25;;;14.20;99.90;;;;;;6189910;23;20100;-94
2023/04/19 08:14:26;;;;;;;0.28;0.28;;;14.30;99.90;;;;;;6143141;23;20071;-93
2023/04/19 08:16:51;;;;;;;0.20;0.20;;;14.40;99.90;;;;;;6163608;23;20291;-90
2023/04/19 08:19:17;;;;;;;0.22;0.22;;;14.50;99.90;;;;;;6188607;23;20016;-85
2023/04/19 08:21:43;;;;;;;1.25;0.45;;;14.50;99.90;;;;;;6212890;23;20012;-85
2023/04/19 08:24:08;;;;;;;0.93;0.90;;;14.40;99.90;;;;;;6214281;23;20088;-85
2023/04/19 08:26:34;;;;;;;0.28;0.20;;;14.40;96.20;;;;;;6217570;23;20333;-85
2023/04/19 08:29:03;;;;;;;0.95;0.35;;;14.40;99.90;;;;;;6192407;23;20028;-91
2023/04/19 08:31:28;;;;;;;0.20;0.20;;;13.70;96.60;;;;;;6213230;23;20421;-92
2023/04/19 08:33:54;;;;;;;0.50;0.50;;;14.50;98.10;;;;;;6163594;23;20027;-92
2023/04/19 08:36:20;;;;;;;0.40;0.32;;;14.70;98.30;;;;;;6213796;23;20031;-91
2023/04/19 08:38:47;;;;;;;0.30;0.20;;;14.90;95.50;;;;;;6163891;23;20120;-92
2023/04/19 08:41:17;;;;;;;0.50;0.45;;;14.90;93.90;;;;;;6191740;23;20024;-95
2023/04/19 08:43:44;;;;;;;0.40;0.40;;;15.10;97.30;;;;;;6192269;23;20346;-90
2023/04/19 08:46:11;;;;;;;0.20;0.20;;;15.30;94.80;;;;;;6149510;23;20016;-92
2023/04/19 08:48:40;;;;;;;0.10;0.10;;;15.50;96.70;;;;;;6190458;23;20012;-91
2023/04/19 08:51:07;;;;;;;0.22;0.22;;;15.60;91.00;;;;;;6213334;23;20020;-90
2023/04/19 08:53:34;;;;;;;0.20;0.20;;;15.30;94.20;;;;;;6164688;23;20021;-90
2023/04/19 08:56:00;;;;;;;0.45;0.30;;;15.20;95.70;;;;;;6190097;23;20100;-90
2023/04/19 08:58:28;;;;;;;0.28;0.20;;;15.40;95.20;;;;;;6188352;23;20016;-90
2023/04/19 09:00:55;;;;;;;0.38;0.22;;;15.20;90.50;;;;;;6213048;23;20013;-91
2023/04/19 09:03:21;;;;;;;0.43;0.35;;;15.40;92.30;;;;;;6188828;23;20103;-91
2023/04/19 09:05:47;;;;;;;;;;;15.70;93.40;;;;;;6163771;23;20333;-91
2023/04/19 09:08:28;;;;;;;0.25;0.20;;;15.80;84.20;;;;;;6187900;23;19922;-93
2023/04/19 09:10:59;;;;;;;0.55;0.32;;;15.80;87.40;;;;;;6212666;23;20023;-90
2023/04/19 09:13:25;;;;;;;0.43;0.40;;;15.90;94.70;;;;;;6187826;23;20067;-91
2023/04/19 09:15:52;;;;;;;0.10;0.10;;;15.90;95.10;;;;;;6187446;23;20024;-90
2023/04/19 09:18:19;;;;;;;0.30;0.30;;;15.80;86.50;;;;;;6187695;23;20353;-91
2023/04/19 09:20:45;;;;;;;1.00;0.30;;;16.00;93.30;;;;;;6187574;23;20020;-92
2023/04/19 09:23:16;;;;;;;0.30;0.30;;;16.10;92.60;;;;;;6216121;23;20020;-90
2023/04/19 09:25:52;;;;;;;1.17;0.32;;;16.10;90.00;;;;;;6194203;23;20024;-92
2023/04/19 09:28:17;;;;;;;0.25;0.25;;;16.00;87.30;;;;;;6212960;23;20508;-90
2023/04/19 09:30:49;;;;;;;0.22;0.10;;;16.00;86.40;;;;;;6189553;23;20020;-91
2023/04/19 09:33:32;;;;;;;0.40;0.20;;;16.10;87.90;;;;;;6215167;23;20323;-90
2023/04/19 09:35:59;;;;;;;1.27;0.68;;;16.20;83.10;;;;;;6189728;23;20020;-90
2023/04/19 09:38:26;;;;;;;0.20;0.20;;;16.20;90.20;;;;;;6215300;23;20016;-88
2023/04/19 09:40:52;;;;;;;0.50;0.30;;;16.30;85.30;;;;;;6214985;23;20091;-90
2023/04/19 09:43:24;;;;;;;0.47;0.30;;;16.30;85.10;;;;;;6215393;23;20059;-88
2023/04/19 09:45:50;;;;;;;0.40;0.15;;;16.30;76.00;;;;;;6188902;23;20012;-89
2023/04/19 09:48:16;;;;;;;0.45;0.30;;;16.30;80.60;;;;;;6190101;23;20021;-88
2023/04/19 09:50:53;;;;;;;0.20;0.20;;;16.20;79.40;;;;;;6214794;23;20025;-88
2023/04/19 09:53:20;;;;;;;0.10;0.10;;;16.20;79.30;;;;;;6215070;23;20063;-88
2023/04/19 09:55:47;;;;;;;0.30;0.30;;;16.30;85.70;;;;;;6219239;23;20072;-90
2023/04/19 09:58:14;;;;;;;0.30;0.30;;;16.20;80.20;;;;;;6217239;23;20027;-88
2023/04/19 10:00:42;;;;;;;0.20;0.20;;;16.00;81.90;;;;;;6189182;23;20017;-87
2023/04/19 10:03:09;;;;;;;0.63;0.63;;;15.80;75.80;;;;;;6215186;23;20012;-91
2023/04/19 10:05:40;;;;;;;0.47;0.47;;;15.70;84.10;;;;;;6216306;23;20012;-90
2023/04/19 10:08:07;;;;;;;0.40;0.40;;;15.60;76.70;;;;;;6190102;23;20100;-87
2023/04/19 10:10:33;;;;;;;0.65;0.32;;;15.60;73.70;;;;;;6214177;23;20516;-86
2023/04/19 10:13:02;;;;;;;0.20;0.15;;;15.70;76.60;;;;;;6213966;23;20107;-86
2023/04/19 10:15:30;;;;;;;0.15;0.15;;;15.70;75.40;;;;;;6213790;23;20072;-87
2023/04/19 10:17:56;;;;;;;0.15;0.15;;;15.60;72.20;;;;;;6213961;23;20013;-86
2023/04/19 10:20:53;;;;;;;0.20;0.20;;;15.70;72.40;;;;;;6215504;23;20107;-88
2023/04/19 10:23:21;;;;;;;0.20;0.20;;;15.80;69.90;;;;;;6177768;23;20017;-87
2023/04/19 10:25:47;;;;;;;0.47;0.30;;;15.80;76.00;;;;;;6213997;23;20024;-88
2023/04/19 10:28:16;;;;;;;0.10;0.10;;;15.70;75.30;;;;;;6213912;23;20095;-88
2023/04/19 10:30:53;;;;;;;0.10;0.10;;;15.80;71.30;;;;;;6189129;23;20055;-90
2023/04/19 10:33:30;;;;;;;0.68;0.40;;;15.90;72.70;;;;;;6188946;23;20460;-88
2023/04/19 10:36:00;;;;;;;0.43;0.20;;;16.00;71.20;;;;;;6213221;23;20048;-88
2023/04/19 10:38:37;;;;;;;0.52;0.10;;;15.90;70.20;;;;;;6213933;23;20055;-89
2023/04/19 10:41:04;;;;;;;0.20;0.20;;;16.10;71.60;;;;;;6187910;23;20361;-89
2023/04/19 10:43:32;;;;;;;0.20;0.20;;;16.10;76.10;;;;;;6189330;23;20378;-89
2023/04/19 10:46:00;;;;;;;0.10;0.10;;;16.30;73.10;;;;;;6214257;23;20390;-88
2023/04/19 10:48:43;;;;;;;0.68;0.17;;;16.50;75.70;;;;;;6213143;23;20013;-89
2023/04/19 10:51:13;;;;;;;0.22;0.22;;;16.70;79.20;;;;;;6188242;23;20032;-90
2023/04/19 10:53:51;;;;;;;0.35;0.30;;;17.00;77.80;;;;;;6217172;23;20060;-91
2023/04/19 10:56:57;;;;;;;0.15;0.15;;;17.00;71.00;;;;;;6214595;23;20088;-90
2023/04/19 10:59:30;;;;;;;0.00;0.00;;;16.80;67.20;;;;;;6213495;23;20020;-94
2023/04/19 11:02:01;;;;;;;0.10;0.10;;;16.80;70.00;;;;;;6213619;23;20116;-90
2023/04/19 11:04:29;;;;;;;0.15;0.15;;;16.70;74.20;;;;;;6190905;23;20013;-91
2023/04/19 11:07:14;;;;;;;0.22;0.20;;;16.80;72.20;;;;;;6213846;23;20017;-91
2023/04/19 11:09:44;;;;;;;0.40;0.40;;;17.00;69.30;;;;;;6189502;23;20016;-92
2023/04/19 11:12:14;;;;;;;0.10;0.10;;;17.00;77.50;;;;;;6189347;23;20012;-92
2023/04/19 11:14:42;;;;;;;0.10;0.10;;;17.10;71.30;;;;;;6214809;23;20087;-90
2023/04/19 11:17:16;;;;;;;0.88;0.40;;;17.20;71.60;;;;;;6213077;23;20050;-85
2023/04/19 11:19:54;;;;;;;0.40;0.32;;;17.20;70.70;;;;;;6189072;23;20020;-91
2023/04/19 11:22:31;;;;;;;0.10;0.10;;;17.40;71.70;;;;;;6191949;23;20023;-92
2023/04/19 11:25:13;;;;;;;0.20;0.20;;;17.50;71.30;;;;;;6188980;23;20017;-91
2023/04/19 11:27:51;;;;;;;0.52;0.20;;;17.30;69.70;;;;;;6214167;23;20071;-89
2023/04/19 11:30:28;;;;;;;0.68;0.20;;;17.20;69.90;;;;;;6213978;23;20040;-91
2023/04/19 11:32:55;;;;;;;0.35;0.17;;;17.10;70.30;;;;;;6188305;23;20028;-92
2023/04/19 11:35:26;;;;;;;0.35;0.30;;;17.20;69.80;;;;;;6214349;23;20013;-89
2023/04/19 11:37:53;;;;;;;0.10;0.10;;;17.30;69.90;;;;;;6188840;23;20533;-89
2023/04/19 11:40:20;;;;;;;2.22;0.73;;;17.20;69.00;;;;;;6164135;23;20087;-91
2023/04/19 11:42:52;;;;;;;0.40;0.40;;;17.20;70.70;;;;;;6214394;23;20092;-92
2023/04/19 11:45:25;;;;;;;0.70;0.43;;;17.20;69.60;;;;;;6213245;23;20017;-90
2023/04/19 11:47:51;;;;;;;0.20;0.20;;;17.10;71.40;;;;;;6188986;23;20409;-91
2023/04/19 11:50:40;;;;;;;0.40;0.40;;;17.10;70.40;;;;;;6188546;23;20075;-92
2023/04/19 11:53:22;;;;;;;0.10;0.10;;;17.20;71.20;;;;;;6212947;23;20023;-89
2023/04/19 11:55:53;;;;;;;0.40;0.32;;;17.20;71.50;;;;;;6189489;23;20024;-90
2023/04/19 11:58:40;;;;;;;0.35;0.35;;;17.40;74.30;;;;;;6163948;23;20021;-88
2023/04/19 12:01:08;;;;;;;0.17;0.17;;;17.50;72.10;;;;;;6187737;23;20021;-87
2023/04/19 12:03:45;;;;;;;0.43;0.40;;;17.60;73.60;;;;;;6188917;23;20070;-89
2023/04/19 12:06:13;;;;;;;0.20;0.20;;;17.60;73.00;;;;;;6189088;23;20017;-90
2023/04/19 12:08:47;;;;;;;0.35;0.25;;;17.70;70.60;;;;;;6189012;23;20445;-89
2023/04/19 12:11:14;;;;;;;0.30;0.22;;;17.50;68.70;;;;;;6163900;23;20025;-91
2023/04/19 12:13:39;;;;;;;0.40;0.40;;;18.00;73.40;;;;;;6163363;23;20503;-86
2023/04/19 12:16:08;;;;;;;0.75;0.52;;;17.60;71.10;;;;;;6189024;23;20024;-88
2023/04/19 12:18:45;;;;;;;0.20;0.20;;;17.60;71.80;;;;;;6188540;23;20021;-89
2023/04/19 12:21:22;;;;;;;0.10;0.10;;;17.70;71.60;;;;;;6163527;23;20016;-89
2023/04/19 12:23:48;;;;;;;0.30;0.30;;;17.70;73.60;;;;;;6188869;23;20020;-89
2023/04/19 12:26:13;;;;;;;0.35;0.35;;;17.60;70.30;;;;;;6164254;23;20009;-94
2023/04/19 12:28:39;;;;;;;0.40;0.30;;;17.50;70.90;;;;;;6188569;23;20326;-89
2023/04/19 12:31:05;;;;;;;0.60;0.32;;;17.50;71.40;;;;;;6163969;23;20044;-91
2023/04/19 12:33:30;;;;;;;0.50;0.50;;;17.70;69.40;;;;;;6164870;23;20024;-88
2023/04/19 12:35:56;;;;;;;0.28;0.28;;;17.70;68.60;;;;;;6164475;23;20020;-89
2023/04/19 12:38:22;;;;;;;0.20;0.20;;;17.60;68.30;;;;;;6189383;23;20067;-88
2023/04/19 12:40:47;;;;;;;0.73;0.38;;;17.60;71.10;;;;;;6139428;23;20051;-87
2023/04/19 12:43:13;;;;;;;0.63;0.40;;;17.70;70.20;;;;;;6164428;23;20364;-88
2023/04/19 12:45:39;;;;;;;0.15;0.15;;;17.80;70.10;;;;;;6189346;23;20013;-88
2023/04/19 12:48:05;;;;;;;0.20;0.20;;;17.90;72.50;;;;;;6215546;23;20024;-88
2023/04/19 12:50:31;;;;;;;1.33;0.43;;;18.00;73.80;;;;;;6199537;23;20027;-88
2023/04/19 12:52:57;;;;;;;0.10;0.10;;;18.00;71.00;;;;;;6164855;23;20056;-87
2023/04/19 12:55:23;;;;;;;0.40;0.30;;;17.80;73.70;;;;;;6189507;23;20463;-87